sensor_id;sensor_type;location;lat;lon;timestamp;P1;durP1;ratioP1;P2;durP2;ratioP2
74920;SDS011;63483;47.384;8.860;2023-05-07T00:01:15;2.00;;;1.00;;
74920;SDS011;63483;47.384;8.860;2023-05-07T00:03:40;2.88;;;1.10;;
74920;SDS011;63483;47.384;8.860;2023-05-07T00:06:05;2.80;;;1.23;;
74920;SDS011;63483;47.384;8.860;2023-05-07T00:08:31;2.03;;;0.90;;
74920;SDS011;63483;47.384;8.860;2023-05-07T00:10:56;1.77;;;0.87;;
74920;SDS011;63483;47.384;8.860;2023-05-07T00:13:22;2.40;;;1.20;;
74920;SDS011;63483;47.384;8.860;2023-05-07T00:15:47;3.65;;;0.80;;
74920;SDS011;63483;47.384;8.860;2023-05-07T00:18:12;3.27;;;1.07;;
74920;SDS011;63483;47.384;8.860;2023-05-07T00:20:38;4.10;;;1.23;;
74920;SDS011;63483;47.384;8.860;2023-05-07T00:23:03;3.53;;;1.00;;
74920;SDS011;63483;47.384;8.860;2023-05-07T00:25:28;2.10;;;0.73;;
74920;SDS011;63483;47.384;8.860;2023-05-07T00:27:54;2.33;;;1.20;;
74920;SDS011;63483;47.384;8.860;2023-05-07T00:30:19;1.70;;;0.80;;
74920;SDS011;63483;47.384;8.860;2023-05-07T00:32:44;2.87;;;1.33;;
74920;SDS011;63483;47.384;8.860;2023-05-07T00:35:10;2.83;;;0.70;;
74920;SDS011;63483;47.384;8.860;2023-05-07T00:37:36;3.15;;;0.93;;
74920;SDS011;63483;47.384;8.860;2023-05-07T00:40:01;1.50;;;0.70;;
74920;SDS011;63483;47.384;8.860;2023-05-07T00:42:29;2.05;;;1.10;;
74920;SDS011;63483;47.384;8.860;2023-05-07T00:44:57;3.58;;;0.93;;
74920;SDS011;63483;47.384;8.860;2023-05-07T00:47:22;2.43;;;1.07;;
74920;SDS011;63483;47.384;8.860;2023-05-07T00:49:48;2.63;;;1.30;;
74920;SDS011;63483;47.384;8.860;2023-05-07T00:52:14;1.80;;;0.97;;
74920;SDS011;63483;47.384;8.860;2023-05-07T00:54:41;3.45;;;0.82;;
74920;SDS011;63483;47.384;8.860;2023-05-07T00:57:07;3.22;;;0.70;;
74920;SDS011;63483;47.384;8.860;2023-05-07T00:59:34;3.67;;;1.00;;
74920;SDS011;63483;47.384;8.860;2023-05-07T01:02:00;2.60;;;1.17;;
74920;SDS011;63483;47.384;8.860;2023-05-07T01:04:25;3.13;;;0.83;;
74920;SDS011;63483;47.384;8.860;2023-05-07T01:06:51;1.63;;;1.08;;
74920;SDS011;63483;47.384;8.860;2023-05-07T01:09:19;2.58;;;1.42;;
74920;SDS011;63483;47.384;8.860;2023-05-07T01:11:45;2.50;;;1.08;;
74920;SDS011;63483;47.384;8.860;2023-05-07T01:14:12;2.13;;;0.80;;
74920;SDS011;63483;47.384;8.860;2023-05-07T01:16:38;3.25;;;1.38;;
74920;SDS011;63483;47.384;8.860;2023-05-07T01:19:06;2.80;;;1.10;;
74920;SDS011;63483;47.384;8.860;2023-05-07T01:21:33;5.85;;;1.52;;
74920;SDS011;63483;47.384;8.860;2023-05-07T01:23:59;2.40;;;1.00;;
74920;SDS011;63483;47.384;8.860;2023-05-07T01:26:25;2.30;;;1.15;;
74920;SDS011;63483;47.384;8.860;2023-05-07T01:28:51;3.27;;;1.60;;
74920;SDS011;63483;47.384;8.860;2023-05-07T01:31:16;2.17;;;1.40;;
74920;SDS011;63483;47.384;8.860;2023-05-07T01:33:42;3.85;;;1.30;;
74920;SDS011;63483;47.384;8.860;2023-05-07T01:36:09;4.35;;;1.23;;
74920;SDS011;63483;47.384;8.860;2023-05-07T01:38:37;3.83;;;1.10;;
74920;SDS011;63483;47.384;8.860;2023-05-07T01:41:03;3.15;;;1.08;;
74920;SDS011;63483;47.384;8.860;2023-05-07T01:43:29;1.92;;;1.45;;
74920;SDS011;63483;47.384;8.860;2023-05-07T01:45:55;2.08;;;1.13;;
74920;SDS011;63483;47.384;8.860;2023-05-07T01:48:22;1.50;;;0.87;;
74920;SDS011;63483;47.384;8.860;2023-05-07T01:50:49;1.40;;;0.90;;
74920;SDS011;63483;47.384;8.860;2023-05-07T01:53:16;3.45;;;1.00;;
74920;SDS011;63483;47.384;8.860;2023-05-07T01:55:41;3.63;;;0.70;;
74920;SDS011;63483;47.384;8.860;2023-05-07T01:58:06;2.90;;;1.23;;
74920;SDS011;63483;47.384;8.860;2023-05-07T02:00:32;3.17;;;0.95;;
74920;SDS011;63483;47.384;8.860;2023-05-07T02:02:57;2.27;;;1.00;;
74920;SDS011;63483;47.384;8.860;2023-05-07T02:05:23;3.20;;;0.90;;
74920;SDS011;63483;47.384;8.860;2023-05-07T02:07:48;5.80;;;1.27;;
74920;SDS011;63483;47.384;8.860;2023-05-07T02:10:14;2.72;;;1.00;;
74920;SDS011;63483;47.384;8.860;2023-05-07T02:12:39;2.37;;;1.00;;
74920;SDS011;63483;47.384;8.860;2023-05-07T02:15:04;1.47;;;0.70;;
74920;SDS011;63483;47.384;8.860;2023-05-07T02:17:30;2.20;;;1.37;;
74920;SDS011;63483;47.384;8.860;2023-05-07T02:19:57;2.10;;;0.80;;
74920;SDS011;63483;47.384;8.860;2023-05-07T02:22:23;2.85;;;1.25;;
74920;SDS011;63483;47.384;8.860;2023-05-07T02:24:48;3.40;;;1.13;;
74920;SDS011;63483;47.384;8.860;2023-05-07T02:27:14;1.97;;;0.90;;
74920;SDS011;63483;47.384;8.860;2023-05-07T02:29:39;3.27;;;1.00;;
74920;SDS011;63483;47.384;8.860;2023-05-07T02:32:05;2.67;;;1.20;;
74920;SDS011;63483;47.384;8.860;2023-05-07T02:34:30;3.60;;;1.40;;
74920;SDS011;63483;47.384;8.860;2023-05-07T02:36:55;3.05;;;1.10;;
74920;SDS011;63483;47.384;8.860;2023-05-07T02:39:20;1.80;;;0.80;;
74920;SDS011;63483;47.384;8.860;2023-05-07T02:41:46;2.40;;;0.80;;
74920;SDS011;63483;47.384;8.860;2023-05-07T02:44:11;2.33;;;1.10;;
74920;SDS011;63483;47.384;8.860;2023-05-07T02:46:37;2.47;;;1.13;;
74920;SDS011;63483;47.384;8.860;2023-05-07T02:49:02;2.10;;;1.33;;
74920;SDS011;63483;47.384;8.860;2023-05-07T02:51:27;3.35;;;1.23;;
74920;SDS011;63483;47.384;8.860;2023-05-07T02:53:53;2.83;;;1.10;;
74920;SDS011;63483;47.384;8.860;2023-05-07T02:56:18;1.50;;;0.80;;
74920;SDS011;63483;47.384;8.860;2023-05-07T02:58:43;4.37;;;1.70;;
74920;SDS011;63483;47.384;8.860;2023-05-07T03:01:09;2.73;;;1.10;;
74920;SDS011;63483;47.384;8.860;2023-05-07T03:03:34;2.70;;;1.07;;
74920;SDS011;63483;47.384;8.860;2023-05-07T03:06:00;5.35;;;1.77;;
74920;SDS011;63483;47.384;8.860;2023-05-07T03:08:26;4.93;;;1.63;;
74920;SDS011;63483;47.384;8.860;2023-05-07T03:10:51;2.83;;;1.30;;
74920;SDS011;63483;47.384;8.860;2023-05-07T03:13:17;4.90;;;1.37;;
74920;SDS011;63483;47.384;8.860;2023-05-07T03:15:42;5.60;;;1.20;;
74920;SDS011;63483;47.384;8.860;2023-05-07T03:18:08;2.00;;;0.82;;
74920;SDS011;63483;47.384;8.860;2023-05-07T03:20:33;3.80;;;1.50;;
74920;SDS011;63483;47.384;8.860;2023-05-07T03:22:58;1.80;;;1.13;;
74920;SDS011;63483;47.384;8.860;2023-05-07T03:25:24;3.13;;;1.00;;
74920;SDS011;63483;47.384;8.860;2023-05-07T03:27:49;4.55;;;1.25;;
74920;SDS011;63483;47.384;8.860;2023-05-07T03:30:15;1.80;;;1.30;;
74920;SDS011;63483;47.384;8.860;2023-05-07T03:32:40;3.73;;;0.87;;
74920;SDS011;63483;47.384;8.860;2023-05-07T03:35:05;1.70;;;0.90;;
74920;SDS011;63483;47.384;8.860;2023-05-07T03:37:32;4.85;;;1.20;;
74920;SDS011;63483;47.384;8.860;2023-05-07T03:39:57;2.23;;;1.70;;
74920;SDS011;63483;47.384;8.860;2023-05-07T03:42:23;2.10;;;0.80;;
74920;SDS011;63483;47.384;8.860;2023-05-07T03:44:49;2.88;;;1.25;;
74920;SDS011;63483;47.384;8.860;2023-05-07T03:47:14;1.60;;;0.90;;
74920;SDS011;63483;47.384;8.860;2023-05-07T03:49:39;2.53;;;1.20;;
74920;SDS011;63483;47.384;8.860;2023-05-07T03:52:05;4.47;;;1.23;;
74920;SDS011;63483;47.384;8.860;2023-05-07T03:54:31;2.47;;;1.25;;
74920;SDS011;63483;47.384;8.860;2023-05-07T03:56:56;2.60;;;0.60;;
74920;SDS011;63483;47.384;8.860;2023-05-07T03:59:22;1.63;;;0.80;;
74920;SDS011;63483;47.384;8.860;2023-05-07T04:01:47;3.17;;;0.93;;
74920;SDS011;63483;47.384;8.860;2023-05-07T04:04:13;2.45;;;0.80;;
74920;SDS011;63483;47.384;8.860;2023-05-07T04:06:39;2.13;;;0.90;;
74920;SDS011;63483;47.384;8.860;2023-05-07T04:09:05;2.83;;;0.75;;
74920;SDS011;63483;47.384;8.860;2023-05-07T04:11:30;2.23;;;1.13;;
74920;SDS011;63483;47.384;8.860;2023-05-07T04:13:55;3.10;;;1.67;;
74920;SDS011;63483;47.384;8.860;2023-05-07T04:16:21;2.40;;;1.10;;
74920;SDS011;63483;47.384;8.860;2023-05-07T04:18:46;2.53;;;1.10;;
74920;SDS011;63483;47.384;8.860;2023-05-07T04:21:15;3.10;;;1.10;;
74920;SDS011;63483;47.384;8.860;2023-05-07T04:23:42;2.80;;;1.27;;
74920;SDS011;63483;47.384;8.860;2023-05-07T04:26:07;2.50;;;1.10;;
74920;SDS011;63483;47.384;8.860;2023-05-07T04:28:33;3.20;;;0.90;;
74920;SDS011;63483;47.384;8.860;2023-05-07T04:30:59;2.53;;;1.27;;
74920;SDS011;63483;47.384;8.860;2023-05-07T04:33:24;3.27;;;1.67;;
74920;SDS011;63483;47.384;8.860;2023-05-07T04:35:49;2.05;;;0.98;;
74920;SDS011;63483;47.384;8.860;2023-05-07T04:38:15;2.57;;;1.10;;
74920;SDS011;63483;47.384;8.860;2023-05-07T04:40:41;2.15;;;1.02;;
74920;SDS011;63483;47.384;8.860;2023-05-07T04:43:07;4.00;;;0.90;;
74920;SDS011;63483;47.384;8.860;2023-05-07T04:45:34;5.07;;;1.20;;
74920;SDS011;63483;47.384;8.860;2023-05-07T04:48:00;4.55;;;0.90;;
74920;SDS011;63483;47.384;8.860;2023-05-07T04:50:25;1.63;;;1.30;;
74920;SDS011;63483;47.384;8.860;2023-05-07T04:52:51;3.10;;;1.38;;
74920;SDS011;63483;47.384;8.860;2023-05-07T04:55:16;2.40;;;1.43;;
74920;SDS011;63483;47.384;8.860;2023-05-07T04:57:42;1.83;;;1.07;;
74920;SDS011;63483;47.384;8.860;2023-05-07T05:00:07;3.33;;;0.83;;
74920;SDS011;63483;47.384;8.860;2023-05-07T05:02:36;3.38;;;0.80;;
74920;SDS011;63483;47.384;8.860;2023-05-07T05:05:01;3.30;;;1.47;;
74920;SDS011;63483;47.384;8.860;2023-05-07T05:07:27;2.70;;;1.40;;
74920;SDS011;63483;47.384;8.860;2023-05-07T05:09:53;4.30;;;1.77;;
74920;SDS011;63483;47.384;8.860;2023-05-07T05:12:18;4.45;;;1.55;;
74920;SDS011;63483;47.384;8.860;2023-05-07T05:14:44;3.83;;;1.13;;
74920;SDS011;63483;47.384;8.860;2023-05-07T05:17:09;2.00;;;1.40;;
74920;SDS011;63483;47.384;8.860;2023-05-07T05:19:35;2.13;;;0.90;;
74920;SDS011;63483;47.384;8.860;2023-05-07T05:22:00;2.60;;;1.10;;
74920;SDS011;63483;47.384;8.860;2023-05-07T05:24:29;2.67;;;1.35;;
74920;SDS011;63483;47.384;8.860;2023-05-07T05:26:55;3.80;;;1.00;;
74920;SDS011;63483;47.384;8.860;2023-05-07T05:29:20;1.93;;;1.23;;
74920;SDS011;63483;47.384;8.860;2023-05-07T05:31:45;3.40;;;1.20;;
74920;SDS011;63483;47.384;8.860;2023-05-07T05:34:11;4.37;;;1.47;;
74920;SDS011;63483;47.384;8.860;2023-05-07T05:36:36;4.00;;;1.63;;
74920;SDS011;63483;47.384;8.860;2023-05-07T05:39:01;3.25;;;1.40;;
74920;SDS011;63483;47.384;8.860;2023-05-07T05:41:27;2.97;;;1.57;;
74920;SDS011;63483;47.384;8.860;2023-05-07T05:43:52;3.00;;;1.50;;
74920;SDS011;63483;47.384;8.860;2023-05-07T05:46:17;4.23;;;2.33;;
74920;SDS011;63483;47.384;8.860;2023-05-07T05:48:43;2.80;;;1.33;;
74920;SDS011;63483;47.384;8.860;2023-05-07T05:51:08;5.13;;;1.60;;
74920;SDS011;63483;47.384;8.860;2023-05-07T05:53:33;2.97;;;1.97;;
74920;SDS011;63483;47.384;8.860;2023-05-07T05:55:58;3.50;;;1.73;;
74920;SDS011;63483;47.384;8.860;2023-05-07T05:58:24;3.13;;;1.30;;
74920;SDS011;63483;47.384;8.860;2023-05-07T06:00:49;2.97;;;1.87;;
74920;SDS011;63483;47.384;8.860;2023-05-07T06:03:17;3.40;;;1.38;;
74920;SDS011;63483;47.384;8.860;2023-05-07T06:05:42;4.40;;;1.33;;
74920;SDS011;63483;47.384;8.860;2023-05-07T06:08:08;3.53;;;1.53;;
74920;SDS011;63483;47.384;8.860;2023-05-07T06:10:33;2.83;;;1.80;;
74920;SDS011;63483;47.384;8.860;2023-05-07T06:12:58;2.67;;;1.67;;
74920;SDS011;63483;47.384;8.860;2023-05-07T06:15:23;2.57;;;1.50;;
74920;SDS011;63483;47.384;8.860;2023-05-07T06:17:49;3.50;;;1.73;;
74920;SDS011;63483;47.384;8.860;2023-05-07T06:20:14;2.57;;;1.50;;
74920;SDS011;63483;47.384;8.860;2023-05-07T06:22:40;3.50;;;1.50;;
74920;SDS011;63483;47.384;8.860;2023-05-07T06:25:05;4.63;;;1.37;;
74920;SDS011;63483;47.384;8.860;2023-05-07T06:27:31;3.60;;;1.65;;
74920;SDS011;63483;47.384;8.860;2023-05-07T06:29:56;2.50;;;1.57;;
74920;SDS011;63483;47.384;8.860;2023-05-07T06:32:21;3.77;;;1.50;;
74920;SDS011;63483;47.384;8.860;2023-05-07T06:34:47;4.27;;;1.47;;
74920;SDS011;63483;47.384;8.860;2023-05-07T06:37:12;2.43;;;1.77;;
74920;SDS011;63483;47.384;8.860;2023-05-07T06:39:37;2.00;;;1.10;;
74920;SDS011;63483;47.384;8.860;2023-05-07T06:42:03;2.90;;;1.33;;
74920;SDS011;63483;47.384;8.860;2023-05-07T06:44:29;1.88;;;0.70;;
74920;SDS011;63483;47.384;8.860;2023-05-07T06:46:55;2.15;;;1.05;;
74920;SDS011;63483;47.384;8.860;2023-05-07T06:49:20;2.23;;;1.00;;
74920;SDS011;63483;47.384;8.860;2023-05-07T06:51:46;1.80;;;1.23;;
74920;SDS011;63483;47.384;8.860;2023-05-07T06:54:11;1.77;;;1.20;;
74920;SDS011;63483;47.384;8.860;2023-05-07T06:56:36;2.25;;;1.25;;
74920;SDS011;63483;47.384;8.860;2023-05-07T06:59:02;2.27;;;1.00;;
74920;SDS011;63483;47.384;8.860;2023-05-07T07:01:28;3.03;;;1.00;;
74920;SDS011;63483;47.384;8.860;2023-05-07T07:03:53;1.67;;;1.15;;
74920;SDS011;63483;47.384;8.860;2023-05-07T07:06:19;1.63;;;0.70;;
74920;SDS011;63483;47.384;8.860;2023-05-07T07:08:45;2.25;;;1.20;;
74920;SDS011;63483;47.384;8.860;2023-05-07T07:11:10;3.20;;;1.20;;
74920;SDS011;63483;47.384;8.860;2023-05-07T07:13:35;1.70;;;0.87;;
74920;SDS011;63483;47.384;8.860;2023-05-07T07:16:01;1.73;;;1.03;;
74920;SDS011;63483;47.384;8.860;2023-05-07T07:18:27;2.58;;;1.33;;
74920;SDS011;63483;47.384;8.860;2023-05-07T07:20:52;2.97;;;1.10;;
74920;SDS011;63483;47.384;8.860;2023-05-07T07:23:18;2.38;;;1.35;;
74920;SDS011;63483;47.384;8.860;2023-05-07T07:25:43;3.17;;;1.30;;
74920;SDS011;63483;47.384;8.860;2023-05-07T07:28:09;1.80;;;0.90;;
74920;SDS011;63483;47.384;8.860;2023-05-07T07:30:35;3.08;;;1.30;;
74920;SDS011;63483;47.384;8.860;2023-05-07T07:33:01;3.07;;;0.90;;
74920;SDS011;63483;47.384;8.860;2023-05-07T07:35:28;1.70;;;1.00;;
74920;SDS011;63483;47.384;8.860;2023-05-07T07:37:54;3.10;;;1.25;;
74920;SDS011;63483;47.384;8.860;2023-05-07T07:40:19;1.70;;;0.80;;
74920;SDS011;63483;47.384;8.860;2023-05-07T07:42:45;2.60;;;1.30;;
74920;SDS011;63483;47.384;8.860;2023-05-07T07:45:10;1.93;;;1.30;;
74920;SDS011;63483;47.384;8.860;2023-05-07T07:47:35;2.23;;;1.67;;
74920;SDS011;63483;47.384;8.860;2023-05-07T07:50:01;3.73;;;1.10;;
74920;SDS011;63483;47.384;8.860;2023-05-07T07:52:26;1.50;;;1.00;;
74920;SDS011;63483;47.384;8.860;2023-05-07T07:54:51;1.70;;;1.00;;
74920;SDS011;63483;47.384;8.860;2023-05-07T07:57:17;2.47;;;1.33;;
74920;SDS011;63483;47.384;8.860;2023-05-07T07:59:42;1.80;;;0.97;;
74920;SDS011;63483;47.384;8.860;2023-05-07T08:02:08;2.28;;;1.10;;
74920;SDS011;63483;47.384;8.860;2023-05-07T08:04:33;2.73;;;1.20;;
74920;SDS011;63483;47.384;8.860;2023-05-07T08:06:59;3.30;;;1.40;;
74920;SDS011;63483;47.384;8.860;2023-05-07T08:09:24;3.40;;;1.50;;
74920;SDS011;63483;47.384;8.860;2023-05-07T08:11:50;2.93;;;2.00;;
74920;SDS011;63483;47.384;8.860;2023-05-07T08:14:15;2.30;;;1.70;;
74920;SDS011;63483;47.384;8.860;2023-05-07T08:16:40;2.27;;;1.73;;
74920;SDS011;63483;47.384;8.860;2023-05-07T08:19:06;4.78;;;2.03;;
74920;SDS011;63483;47.384;8.860;2023-05-07T08:21:31;2.43;;;1.80;;
74920;SDS011;63483;47.384;8.860;2023-05-07T08:23:57;2.93;;;2.13;;
74920;SDS011;63483;47.384;8.860;2023-05-07T08:26:23;3.57;;;2.00;;
74920;SDS011;63483;47.384;8.860;2023-05-07T08:28:49;3.80;;;2.50;;
74920;SDS011;63483;47.384;8.860;2023-05-07T08:31:14;2.73;;;1.90;;
74920;SDS011;63483;47.384;8.860;2023-05-07T08:33:39;3.17;;;2.10;;
74920;SDS011;63483;47.384;8.860;2023-05-07T08:36:05;4.47;;;2.07;;
74920;SDS011;63483;47.384;8.860;2023-05-07T08:38:30;3.65;;;1.65;;
74920;SDS011;63483;47.384;8.860;2023-05-07T08:40:56;4.13;;;1.53;;
74920;SDS011;63483;47.384;8.860;2023-05-07T08:43:21;4.67;;;2.13;;
74920;SDS011;63483;47.384;8.860;2023-05-07T08:45:52;3.13;;;2.03;;
74920;SDS011;63483;47.384;8.860;2023-05-07T08:48:20;2.63;;;2.20;;
74920;SDS011;63483;47.384;8.860;2023-05-07T08:50:48;4.03;;;1.80;;
74920;SDS011;63483;47.384;8.860;2023-05-07T08:53:14;3.67;;;2.37;;
74920;SDS011;63483;47.384;8.860;2023-05-07T08:55:42;3.40;;;1.70;;
74920;SDS011;63483;47.384;8.860;2023-05-07T08:58:07;3.53;;;2.10;;
74920;SDS011;63483;47.384;8.860;2023-05-07T09:00:33;3.60;;;1.80;;
74920;SDS011;63483;47.384;8.860;2023-05-07T09:03:00;4.45;;;1.88;;
74920;SDS011;63483;47.384;8.860;2023-05-07T09:05:25;3.03;;;1.83;;
74920;SDS011;63483;47.384;8.860;2023-05-07T09:07:51;3.90;;;2.43;;
74920;SDS011;63483;47.384;8.860;2023-05-07T09:10:16;3.67;;;1.67;;
74920;SDS011;63483;47.384;8.860;2023-05-07T09:12:41;6.33;;;2.40;;
74920;SDS011;63483;47.384;8.860;2023-05-07T09:15:07;4.07;;;2.20;;
74920;SDS011;63483;47.384;8.860;2023-05-07T09:17:33;2.50;;;1.90;;
74920;SDS011;63483;47.384;8.860;2023-05-07T09:20:04;3.23;;;1.60;;
74920;SDS011;63483;47.384;8.860;2023-05-07T09:22:35;5.13;;;2.45;;
74920;SDS011;63483;47.384;8.860;2023-05-07T09:25:01;3.28;;;1.80;;
74920;SDS011;63483;47.384;8.860;2023-05-07T09:27:27;2.73;;;1.80;;
74920;SDS011;63483;47.384;8.860;2023-05-07T09:29:52;2.90;;;2.00;;
74920;SDS011;63483;47.384;8.860;2023-05-07T09:32:18;7.43;;;2.70;;
74920;SDS011;63483;47.384;8.860;2023-05-07T09:34:43;4.30;;;2.00;;
74920;SDS011;63483;47.384;8.860;2023-05-07T09:37:10;2.30;;;1.93;;
74920;SDS011;63483;47.384;8.860;2023-05-07T09:42:06;3.85;;;2.38;;
74920;SDS011;63483;47.384;8.860;2023-05-07T09:44:31;3.90;;;1.80;;
74920;SDS011;63483;47.384;8.860;2023-05-07T09:46:57;3.35;;;2.20;;
74920;SDS011;63483;47.384;8.860;2023-05-07T09:49:25;3.58;;;2.10;;
74920;SDS011;63483;47.384;8.860;2023-05-07T09:51:55;3.65;;;2.38;;
74920;SDS011;63483;47.384;8.860;2023-05-07T09:54:21;3.40;;;2.13;;
74920;SDS011;63483;47.384;8.860;2023-05-07T09:56:50;3.63;;;2.20;;
74920;SDS011;63483;47.384;8.860;2023-05-07T09:59:17;3.33;;;2.10;;
74920;SDS011;63483;47.384;8.860;2023-05-07T10:01:43;3.50;;;1.98;;
74920;SDS011;63483;47.384;8.860;2023-05-07T10:04:12;3.00;;;1.73;;
74920;SDS011;63483;47.384;8.860;2023-05-07T10:06:39;2.95;;;1.90;;
74920;SDS011;63483;47.384;8.860;2023-05-07T10:09:05;4.03;;;2.10;;
74920;SDS011;63483;47.384;8.860;2023-05-07T10:11:34;4.25;;;2.60;;
74920;SDS011;63483;47.384;8.860;2023-05-07T10:14:01;3.63;;;2.00;;
74920;SDS011;63483;47.384;8.860;2023-05-07T10:16:31;3.72;;;2.40;;
74920;SDS011;63483;47.384;8.860;2023-05-07T10:18:58;3.58;;;2.13;;
74920;SDS011;63483;47.384;8.860;2023-05-07T10:21:24;3.63;;;2.30;;
74920;SDS011;63483;47.384;8.860;2023-05-07T10:26:50;3.70;;;2.73;;
74920;SDS011;63483;47.384;8.860;2023-05-07T10:31:59;3.85;;;2.70;;
74920;SDS011;63483;47.384;8.860;2023-05-07T10:34:37;3.25;;;2.30;;
74920;SDS011;63483;47.384;8.860;2023-05-07T10:37:06;3.30;;;2.15;;
74920;SDS011;63483;47.384;8.860;2023-05-07T10:39:32;2.80;;;2.53;;
74920;SDS011;63483;47.384;8.860;2023-05-07T10:42:07;3.13;;;2.58;;
74920;SDS011;63483;47.384;8.860;2023-05-07T10:44:36;3.97;;;2.40;;
74920;SDS011;63483;47.384;8.860;2023-05-07T10:47:12;3.15;;;2.22;;
74920;SDS011;63483;47.384;8.860;2023-05-07T10:52:17;4.50;;;2.20;;
74920;SDS011;63483;47.384;8.860;2023-05-07T10:54:44;3.55;;;2.33;;
74920;SDS011;63483;47.384;8.860;2023-05-07T11:05:25;29.15;;;3.30;;
74920;SDS011;63483;47.384;8.860;2023-05-07T11:07:55;4.10;;;1.90;;
74920;SDS011;63483;47.384;8.860;2023-05-07T11:10:21;3.60;;;1.73;;
74920;SDS011;63483;47.384;8.860;2023-05-07T11:12:48;4.25;;;1.88;;
74920;SDS011;63483;47.384;8.860;2023-05-07T11:15:14;3.28;;;1.77;;
74920;SDS011;63483;47.384;8.860;2023-05-07T11:17:58;2.75;;;1.80;;
74920;SDS011;63483;47.384;8.860;2023-05-07T11:20:44;3.45;;;2.30;;
74920;SDS011;63483;47.384;8.860;2023-05-07T11:28:30;3.75;;;1.88;;
74920;SDS011;63483;47.384;8.860;2023-05-07T11:30:56;3.28;;;1.90;;
74920;SDS011;63483;47.384;8.860;2023-05-07T11:33:22;4.10;;;2.53;;
74920;SDS011;63483;47.384;8.860;2023-05-07T11:35:50;3.33;;;1.90;;
74920;SDS011;63483;47.384;8.860;2023-05-07T11:38:17;3.72;;;1.85;;
74920;SDS011;63483;47.384;8.860;2023-05-07T11:40:54;3.70;;;2.33;;
74920;SDS011;63483;47.384;8.860;2023-05-07T11:43:21;2.88;;;2.10;;
74920;SDS011;63483;47.384;8.860;2023-05-07T11:45:46;3.00;;;2.33;;
74920;SDS011;63483;47.384;8.860;2023-05-07T11:48:12;5.78;;;2.25;;
74920;SDS011;63483;47.384;8.860;2023-05-07T11:50:51;4.50;;;2.40;;
74920;SDS011;63483;47.384;8.860;2023-05-07T11:53:26;3.07;;;1.90;;
74920;SDS011;63483;47.384;8.860;2023-05-07T11:55:52;4.40;;;2.20;;
74920;SDS011;63483;47.384;8.860;2023-05-07T11:58:22;3.05;;;2.00;;
74920;SDS011;63483;47.384;8.860;2023-05-07T12:00:54;3.17;;;1.85;;
74920;SDS011;63483;47.384;8.860;2023-05-07T12:03:20;4.47;;;2.40;;
74920;SDS011;63483;47.384;8.860;2023-05-07T12:05:46;3.67;;;2.43;;
74920;SDS011;63483;47.384;8.860;2023-05-07T12:08:18;4.13;;;2.40;;
74920;SDS011;63483;47.384;8.860;2023-05-07T12:10:46;3.15;;;2.05;;
74920;SDS011;63483;47.384;8.860;2023-05-07T12:13:18;3.33;;;2.05;;
74920;SDS011;63483;47.384;8.860;2023-05-07T12:15:45;3.97;;;1.70;;
74920;SDS011;63483;47.384;8.860;2023-05-07T12:18:11;5.18;;;2.13;;
74920;SDS011;63483;47.384;8.860;2023-05-07T12:20:38;3.42;;;2.17;;
74920;SDS011;63483;47.384;8.860;2023-05-07T12:23:04;3.05;;;2.40;;
74920;SDS011;63483;47.384;8.860;2023-05-07T12:25:31;2.90;;;2.13;;
74920;SDS011;63483;47.384;8.860;2023-05-07T12:27:57;3.40;;;2.00;;
74920;SDS011;63483;47.384;8.860;2023-05-07T12:30:24;5.50;;;2.00;;
74920;SDS011;63483;47.384;8.860;2023-05-07T12:32:52;3.80;;;2.40;;
74920;SDS011;63483;47.384;8.860;2023-05-07T12:35:25;3.22;;;2.47;;
74920;SDS011;63483;47.384;8.860;2023-05-07T12:38:12;3.93;;;2.63;;
74920;SDS011;63483;47.384;8.860;2023-05-07T12:40:39;2.90;;;2.20;;
74920;SDS011;63483;47.384;8.860;2023-05-07T12:43:06;2.88;;;2.13;;
74920;SDS011;63483;47.384;8.860;2023-05-07T12:45:36;2.85;;;2.45;;
74920;SDS011;63483;47.384;8.860;2023-05-07T12:48:04;3.55;;;2.30;;
74920;SDS011;63483;47.384;8.860;2023-05-07T12:50:32;3.70;;;2.53;;
74920;SDS011;63483;47.384;8.860;2023-05-07T12:52:58;3.15;;;2.85;;
74920;SDS011;63483;47.384;8.860;2023-05-07T12:55:24;4.90;;;2.20;;
74920;SDS011;63483;47.384;8.860;2023-05-07T12:57:50;3.28;;;1.95;;
74920;SDS011;63483;47.384;8.860;2023-05-07T13:00:16;5.05;;;2.63;;
74920;SDS011;63483;47.384;8.860;2023-05-07T13:02:43;3.67;;;2.50;;
74920;SDS011;63483;47.384;8.860;2023-05-07T13:05:12;3.50;;;2.57;;
74920;SDS011;63483;47.384;8.860;2023-05-07T13:07:37;4.30;;;2.72;;
74920;SDS011;63483;47.384;8.860;2023-05-07T13:10:03;5.37;;;2.80;;
74920;SDS011;63483;47.384;8.860;2023-05-07T13:12:29;4.50;;;3.13;;
74920;SDS011;63483;47.384;8.860;2023-05-07T13:14:54;5.43;;;3.30;;
74920;SDS011;63483;47.384;8.860;2023-05-07T13:17:20;4.13;;;2.83;;
74920;SDS011;63483;47.384;8.860;2023-05-07T13:19:45;5.43;;;3.70;;
74920;SDS011;63483;47.384;8.860;2023-05-07T13:22:11;5.37;;;3.53;;
74920;SDS011;63483;47.384;8.860;2023-05-07T13:24:36;5.30;;;3.63;;
74920;SDS011;63483;47.384;8.860;2023-05-07T13:27:01;5.33;;;3.80;;
74920;SDS011;63483;47.384;8.860;2023-05-07T13:29:27;7.60;;;3.72;;
74920;SDS011;63483;47.384;8.860;2023-05-07T13:31:57;7.85;;;4.07;;
74920;SDS011;63483;47.384;8.860;2023-05-07T13:34:22;6.30;;;4.57;;
74920;SDS011;63483;47.384;8.860;2023-05-07T13:36:47;4.30;;;3.90;;
74920;SDS011;63483;47.384;8.860;2023-05-07T13:39:13;7.03;;;4.17;;
74920;SDS011;63483;47.384;8.860;2023-05-07T13:41:39;5.27;;;3.90;;
74920;SDS011;63483;47.384;8.860;2023-05-07T13:44:04;6.47;;;4.17;;
74920;SDS011;63483;47.384;8.860;2023-05-07T13:46:29;5.95;;;3.58;;
74920;SDS011;63483;47.384;8.860;2023-05-07T13:48:55;6.80;;;3.63;;
74920;SDS011;63483;47.384;8.860;2023-05-07T13:51:21;4.10;;;3.70;;
74920;SDS011;63483;47.384;8.860;2023-05-07T13:53:47;4.45;;;3.30;;
74920;SDS011;63483;47.384;8.860;2023-05-07T13:56:12;5.37;;;3.50;;
74920;SDS011;63483;47.384;8.860;2023-05-07T13:58:37;5.57;;;3.30;;
74920;SDS011;63483;47.384;8.860;2023-05-07T14:01:03;7.13;;;3.87;;
74920;SDS011;63483;47.384;8.860;2023-05-07T14:03:28;5.53;;;3.17;;
74920;SDS011;63483;47.384;8.860;2023-05-07T14:05:56;5.55;;;3.45;;
74920;SDS011;63483;47.384;8.860;2023-05-07T14:08:22;3.75;;;3.30;;
74920;SDS011;63483;47.384;8.860;2023-05-07T14:10:48;4.50;;;3.60;;
74920;SDS011;63483;47.384;8.860;2023-05-07T14:13:13;4.57;;;3.43;;
74920;SDS011;63483;47.384;8.860;2023-05-07T14:15:39;4.50;;;3.40;;
74920;SDS011;63483;47.384;8.860;2023-05-07T14:18:05;3.97;;;3.45;;
74920;SDS011;63483;47.384;8.860;2023-05-07T14:20:30;4.07;;;3.67;;
74920;SDS011;63483;47.384;8.860;2023-05-07T14:22:56;6.23;;;4.63;;
74920;SDS011;63483;47.384;8.860;2023-05-07T14:25:21;3.97;;;3.28;;
74920;SDS011;63483;47.384;8.860;2023-05-07T14:27:46;5.23;;;3.67;;
74920;SDS011;63483;47.384;8.860;2023-05-07T14:30:12;3.90;;;3.20;;
74920;SDS011;63483;47.384;8.860;2023-05-07T14:32:37;5.00;;;3.50;;
74920;SDS011;63483;47.384;8.860;2023-05-07T14:35:03;4.40;;;3.67;;
74920;SDS011;63483;47.384;8.860;2023-05-07T14:37:28;4.63;;;3.35;;
74920;SDS011;63483;47.384;8.860;2023-05-07T14:39:54;5.00;;;3.70;;
74920;SDS011;63483;47.384;8.860;2023-05-07T14:42:19;4.83;;;3.27;;
74920;SDS011;63483;47.384;8.860;2023-05-07T14:44:45;4.83;;;3.63;;
74920;SDS011;63483;47.384;8.860;2023-05-07T14:47:11;4.85;;;3.72;;
74920;SDS011;63483;47.384;8.860;2023-05-07T14:49:37;3.87;;;3.30;;
74920;SDS011;63483;47.384;8.860;2023-05-07T14:52:03;3.83;;;3.08;;
74920;SDS011;63483;47.384;8.860;2023-05-07T14:54:30;6.37;;;3.63;;
74920;SDS011;63483;47.384;8.860;2023-05-07T14:57:00;5.60;;;3.15;;
74920;SDS011;63483;47.384;8.860;2023-05-07T14:59:25;3.70;;;3.03;;
74920;SDS011;63483;47.384;8.860;2023-05-07T15:01:50;4.17;;;3.00;;
74920;SDS011;63483;47.384;8.860;2023-05-07T15:04:16;3.45;;;2.67;;
74920;SDS011;63483;47.384;8.860;2023-05-07T15:06:41;4.20;;;2.53;;